EDDF

Frankfurt am Main Airport

Airport
ICAO code
EDDF
IATA Code
FRA
Summary
ICAO Region
EUR
ICAO Territory
Location

Frankfurt,

Serving
Frankfurt
Elevation
364 ft
Coordinates
50° 2' 28" N , 8° 34' 24" E
KCC
Airport LOS
Parallel Runway Operation
Metar
Observation
EDDF 281020Z AUTO 26007KT 230V290 9999 FEW029 SCT040 BKN049 11/05 Q0998 NOSIG
Station
Frankfurt / M-Flughafen
Date/Time
2022-09-28 10:20:00
Wind direction
260°
Wind speed
07 kts
Lowest cloud amount
few clouds
Temperature
11°C
Dew point
5°C
Humidity
66%
QNH
998 hPa
Weather condition
n/a

Description

International airport serving Frankfurt am Main, Germany.

Climatology

Temperate Marine climate/Oceanic climate (Köppen climate classification Cfb) - Moderately cool summer and comparatively warm winter.

Runways

Designator Length Width Surface Rops
07C/25C 4000 60 CON Yes/Yes
07R/25L 4000 45 CON Yes/Yes
18/36 4000 45 CON Yes/Yes

SKYbrary Partners:

Safety knowledge contributed by: